sensor_id;sensor_type;location;lat;lon;timestamp;P1;durP1;ratioP1;P2;durP2;ratioP2
63203;SDS011;49297;43.210;27.914;2023-05-27T00:00:05;7.57;;;6.88;;
63203;SDS011;49297;43.210;27.914;2023-05-27T00:02:33;7.88;;;7.18;;
63203;SDS011;49297;43.210;27.914;2023-05-27T00:04:58;8.05;;;7.35;;
63203;SDS011;49297;43.210;27.914;2023-05-27T00:07:24;9.60;;;8.60;;
63203;SDS011;49297;43.210;27.914;2023-05-27T00:09:50;9.70;;;8.50;;
63203;SDS011;49297;43.210;27.914;2023-05-27T00:12:16;9.60;;;8.77;;
63203;SDS011;49297;43.210;27.914;2023-05-27T00:14:43;10.93;;;8.38;;
63203;SDS011;49297;43.210;27.914;2023-05-27T00:17:10;9.65;;;8.85;;
63203;SDS011;49297;43.210;27.914;2023-05-27T00:19:42;11.30;;;9.52;;
63203;SDS011;49297;43.210;27.914;2023-05-27T00:22:10;9.23;;;8.33;;
63203;SDS011;49297;43.210;27.914;2023-05-27T00:24:36;9.27;;;7.63;;
63203;SDS011;49297;43.210;27.914;2023-05-27T00:27:04;8.63;;;7.82;;
63203;SDS011;49297;43.210;27.914;2023-05-27T00:29:34;8.43;;;7.72;;
63203;SDS011;49297;43.210;27.914;2023-05-27T00:32:01;11.20;;;7.80;;
63203;SDS011;49297;43.210;27.914;2023-05-27T00:34:31;7.97;;;7.18;;
63203;SDS011;49297;43.210;27.914;2023-05-27T00:36:59;7.85;;;6.93;;
63203;SDS011;49297;43.210;27.914;2023-05-27T00:39:25;8.18;;;6.80;;
63203;SDS011;49297;43.210;27.914;2023-05-27T00:41:50;7.70;;;6.68;;
63203;SDS011;49297;43.210;27.914;2023-05-27T00:44:16;8.10;;;7.40;;
63203;SDS011;49297;43.210;27.914;2023-05-27T00:46:43;7.70;;;6.47;;
63203;SDS011;49297;43.210;27.914;2023-05-27T00:49:12;7.75;;;7.05;;
63203;SDS011;49297;43.210;27.914;2023-05-27T00:51:38;9.70;;;7.03;;
63203;SDS011;49297;43.210;27.914;2023-05-27T00:54:03;8.23;;;7.43;;
63203;SDS011;49297;43.210;27.914;2023-05-27T00:56:29;8.35;;;7.55;;
63203;SDS011;49297;43.210;27.914;2023-05-27T00:58:55;10.40;;;7.78;;
63203;SDS011;49297;43.210;27.914;2023-05-27T01:01:21;7.53;;;6.82;;
63203;SDS011;49297;43.210;27.914;2023-05-27T01:03:50;7.65;;;6.95;;
63203;SDS011;49297;43.210;27.914;2023-05-27T01:09:17;8.20;;;7.40;;
63203;SDS011;49297;43.210;27.914;2023-05-27T01:12:18;7.73;;;7.03;;
63203;SDS011;49297;43.210;27.914;2023-05-27T01:14:47;7.97;;;6.95;;
63203;SDS011;49297;43.210;27.914;2023-05-27T01:17:15;9.55;;;7.35;;
63203;SDS011;49297;43.210;27.914;2023-05-27T01:19:44;8.35;;;6.60;;
63203;SDS011;49297;43.210;27.914;2023-05-27T01:22:11;8.45;;;7.00;;
63203;SDS011;49297;43.210;27.914;2023-05-27T01:24:38;7.13;;;6.38;;
63203;SDS011;49297;43.210;27.914;2023-05-27T01:27:07;7.40;;;6.63;;
63203;SDS011;49297;43.210;27.914;2023-05-27T01:29:33;8.10;;;7.30;;
63203;SDS011;49297;43.210;27.914;2023-05-27T01:32:01;7.38;;;6.75;;
63203;SDS011;49297;43.210;27.914;2023-05-27T01:34:33;7.33;;;6.17;;
63203;SDS011;49297;43.210;27.914;2023-05-27T01:37:02;7.05;;;5.45;;
63203;SDS011;49297;43.210;27.914;2023-05-27T01:39:32;8.23;;;6.00;;
63203;SDS011;49297;43.210;27.914;2023-05-27T01:41:59;6.18;;;5.28;;
63203;SDS011;49297;43.210;27.914;2023-05-27T01:44:27;7.22;;;5.40;;
63203;SDS011;49297;43.210;27.914;2023-05-27T01:47:01;6.53;;;5.05;;
63203;SDS011;49297;43.210;27.914;2023-05-27T01:49:28;6.10;;;4.78;;
63203;SDS011;49297;43.210;27.914;2023-05-27T01:51:54;5.70;;;4.60;;
63203;SDS011;49297;43.210;27.914;2023-05-27T01:54:20;5.75;;;4.63;;
63203;SDS011;49297;43.210;27.914;2023-05-27T01:56:46;5.50;;;4.72;;
63203;SDS011;49297;43.210;27.914;2023-05-27T01:59:11;4.87;;;4.37;;
63203;SDS011;49297;43.210;27.914;2023-05-27T02:01:37;4.97;;;4.57;;
63203;SDS011;49297;43.210;27.914;2023-05-27T02:04:03;6.03;;;4.88;;
63203;SDS011;49297;43.210;27.914;2023-05-27T02:06:29;5.93;;;5.33;;
63203;SDS011;49297;43.210;27.914;2023-05-27T02:08:55;6.77;;;4.77;;
63203;SDS011;49297;43.210;27.914;2023-05-27T02:11:21;5.43;;;4.93;;
63203;SDS011;49297;43.210;27.914;2023-05-27T02:13:47;5.70;;;5.13;;
63203;SDS011;49297;43.210;27.914;2023-05-27T02:16:12;8.17;;;5.47;;
63203;SDS011;49297;43.210;27.914;2023-05-27T02:18:40;5.90;;;5.40;;
63203;SDS011;49297;43.210;27.914;2023-05-27T02:21:06;5.55;;;4.95;;
63203;SDS011;49297;43.210;27.914;2023-05-27T02:23:32;6.10;;;5.00;;
63203;SDS011;49297;43.210;27.914;2023-05-27T02:25:58;6.88;;;4.75;;
63203;SDS011;49297;43.210;27.914;2023-05-27T02:28:26;5.60;;;4.60;;
63203;SDS011;49297;43.210;27.914;2023-05-27T02:30:52;7.55;;;6.35;;
63203;SDS011;49297;43.210;27.914;2023-05-27T02:33:17;5.63;;;5.13;;
63203;SDS011;49297;43.210;27.914;2023-05-27T02:35:44;6.38;;;5.15;;
63203;SDS011;49297;43.210;27.914;2023-05-27T02:38:10;6.72;;;4.88;;
63203;SDS011;49297;43.210;27.914;2023-05-27T02:40:36;5.80;;;4.90;;
63203;SDS011;49297;43.210;27.914;2023-05-27T02:43:02;8.13;;;4.97;;
63203;SDS011;49297;43.210;27.914;2023-05-27T02:45:28;5.80;;;5.30;;
63203;SDS011;49297;43.210;27.914;2023-05-27T02:47:53;6.45;;;5.80;;
63203;SDS011;49297;43.210;27.914;2023-05-27T02:50:20;9.43;;;7.88;;
63203;SDS011;49297;43.210;27.914;2023-05-27T02:52:46;8.97;;;8.17;;
63203;SDS011;49297;43.210;27.914;2023-05-27T02:55:12;8.67;;;7.97;;
63203;SDS011;49297;43.210;27.914;2023-05-27T02:57:37;7.10;;;6.40;;
63203;SDS011;49297;43.210;27.914;2023-05-27T03:00:03;7.73;;;5.70;;
63203;SDS011;49297;43.210;27.914;2023-05-27T03:02:29;5.60;;;4.93;;
63203;SDS011;49297;43.210;27.914;2023-05-27T03:04:57;5.97;;;5.38;;
63203;SDS011;49297;43.210;27.914;2023-05-27T03:07:22;5.77;;;5.17;;
63203;SDS011;49297;43.210;27.914;2023-05-27T03:09:48;5.20;;;4.70;;
63203;SDS011;49297;43.210;27.914;2023-05-27T03:12:14;6.63;;;4.80;;
63203;SDS011;49297;43.210;27.914;2023-05-27T03:14:40;5.50;;;5.00;;
63203;SDS011;49297;43.210;27.914;2023-05-27T03:17:06;5.35;;;4.82;;
63203;SDS011;49297;43.210;27.914;2023-05-27T03:19:31;5.20;;;4.80;;
63203;SDS011;49297;43.210;27.914;2023-05-27T03:21:57;5.32;;;4.82;;
63203;SDS011;49297;43.210;27.914;2023-05-27T03:24:23;5.83;;;5.23;;
63203;SDS011;49297;43.210;27.914;2023-05-27T03:26:48;8.70;;;5.35;;
63203;SDS011;49297;43.210;27.914;2023-05-27T03:29:15;6.20;;;4.35;;
63203;SDS011;49297;43.210;27.914;2023-05-27T03:31:41;6.65;;;5.25;;
63203;SDS011;49297;43.210;27.914;2023-05-27T03:34:07;8.57;;;4.40;;
63203;SDS011;49297;43.210;27.914;2023-05-27T03:36:33;8.10;;;4.90;;
63203;SDS011;49297;43.210;27.914;2023-05-27T03:39:00;5.00;;;4.50;;
63203;SDS011;49297;43.210;27.914;2023-05-27T03:41:26;5.20;;;4.38;;
63203;SDS011;49297;43.210;27.914;2023-05-27T03:43:51;4.80;;;4.38;;
63203;SDS011;49297;43.210;27.914;2023-05-27T03:46:17;7.10;;;4.47;;
63203;SDS011;49297;43.210;27.914;2023-05-27T03:48:43;4.88;;;4.40;;
63203;SDS011;49297;43.210;27.914;2023-05-27T03:51:08;5.37;;;4.20;;
63203;SDS011;49297;43.210;27.914;2023-05-27T03:53:35;4.97;;;4.20;;
63203;SDS011;49297;43.210;27.914;2023-05-27T03:56:01;6.63;;;5.40;;
63203;SDS011;49297;43.210;27.914;2023-05-27T03:58:26;6.03;;;5.43;;
63203;SDS011;49297;43.210;27.914;2023-05-27T04:00:52;5.50;;;4.95;;
63203;SDS011;49297;43.210;27.914;2023-05-27T04:03:18;7.57;;;4.50;;
63203;SDS011;49297;43.210;27.914;2023-05-27T04:05:44;6.20;;;4.45;;
63203;SDS011;49297;43.210;27.914;2023-05-27T04:08:10;5.17;;;4.07;;
63203;SDS011;49297;43.210;27.914;2023-05-27T04:10:38;4.20;;;3.80;;
63203;SDS011;49297;43.210;27.914;2023-05-27T04:13:05;4.55;;;3.85;;
63203;SDS011;49297;43.210;27.914;2023-05-27T04:15:30;9.07;;;3.80;;
63203;SDS011;49297;43.210;27.914;2023-05-27T04:17:57;8.60;;;4.43;;
63203;SDS011;49297;43.210;27.914;2023-05-27T04:20:23;6.70;;;3.90;;
63203;SDS011;49297;43.210;27.914;2023-05-27T04:22:49;4.70;;;4.20;;
63203;SDS011;49297;43.210;27.914;2023-05-27T04:25:16;4.82;;;4.07;;
63203;SDS011;49297;43.210;27.914;2023-05-27T04:27:42;5.63;;;3.83;;
63203;SDS011;49297;43.210;27.914;2023-05-27T04:30:07;6.22;;;3.95;;
63203;SDS011;49297;43.210;27.914;2023-05-27T04:32:33;4.50;;;4.10;;
63203;SDS011;49297;43.210;27.914;2023-05-27T04:35:06;5.28;;;4.00;;
63203;SDS011;49297;43.210;27.914;2023-05-27T04:37:34;6.53;;;4.22;;
63203;SDS011;49297;43.210;27.914;2023-05-27T04:40:04;10.82;;;4.38;;
63203;SDS011;49297;43.210;27.914;2023-05-27T04:42:31;5.00;;;4.50;;
63203;SDS011;49297;43.210;27.914;2023-05-27T04:44:58;5.07;;;3.47;;
63203;SDS011;49297;43.210;27.914;2023-05-27T04:47:25;5.75;;;3.92;;
63203;SDS011;49297;43.210;27.914;2023-05-27T04:49:51;5.10;;;4.47;;
63203;SDS011;49297;43.210;27.914;2023-05-27T04:52:16;4.85;;;4.00;;
63203;SDS011;49297;43.210;27.914;2023-05-27T04:54:46;6.20;;;4.70;;
63203;SDS011;49297;43.210;27.914;2023-05-27T04:57:13;6.30;;;4.70;;
63203;SDS011;49297;43.210;27.914;2023-05-27T04:59:44;4.32;;;3.67;;
63203;SDS011;49297;43.210;27.914;2023-05-27T05:02:42;7.00;;;4.60;;
63203;SDS011;49297;43.210;27.914;2023-05-27T05:05:08;7.90;;;4.40;;
63203;SDS011;49297;43.210;27.914;2023-05-27T05:07:35;4.70;;;4.20;;
63203;SDS011;49297;43.210;27.914;2023-05-27T05:10:05;4.05;;;3.75;;
63203;SDS011;49297;43.210;27.914;2023-05-27T05:12:32;4.80;;;4.30;;
63203;SDS011;49297;43.210;27.914;2023-05-27T05:14:58;5.57;;;4.17;;
63203;SDS011;49297;43.210;27.914;2023-05-27T05:17:25;5.47;;;4.78;;
63203;SDS011;49297;43.210;27.914;2023-05-27T05:19:53;4.87;;;4.47;;
63203;SDS011;49297;43.210;27.914;2023-05-27T05:22:19;5.07;;;4.57;;
63203;SDS011;49297;43.210;27.914;2023-05-27T05:24:47;5.32;;;4.85;;
63203;SDS011;49297;43.210;27.914;2023-05-27T05:27:14;6.15;;;4.95;;
63203;SDS011;49297;43.210;27.914;2023-05-27T05:29:41;4.15;;;3.78;;
63203;SDS011;49297;43.210;27.914;2023-05-27T05:32:07;5.18;;;4.60;;
63203;SDS011;49297;43.210;27.914;2023-05-27T05:34:36;6.38;;;5.70;;
63203;SDS011;49297;43.210;27.914;2023-05-27T05:37:01;5.23;;;4.83;;
63203;SDS011;49297;43.210;27.914;2023-05-27T05:39:27;5.65;;;4.50;;
63203;SDS011;49297;43.210;27.914;2023-05-27T05:41:53;5.07;;;4.57;;
63203;SDS011;49297;43.210;27.914;2023-05-27T05:44:18;5.40;;;4.90;;
63203;SDS011;49297;43.210;27.914;2023-05-27T05:46:44;6.57;;;4.78;;
63203;SDS011;49297;43.210;27.914;2023-05-27T05:49:10;5.20;;;4.50;;
63203;SDS011;49297;43.210;27.914;2023-05-27T05:51:36;7.20;;;4.95;;
63203;SDS011;49297;43.210;27.914;2023-05-27T05:54:02;5.88;;;5.25;;
63203;SDS011;49297;43.210;27.914;2023-05-27T05:56:27;5.63;;;5.13;;
63203;SDS011;49297;43.210;27.914;2023-05-27T05:58:53;5.80;;;5.30;;
63203;SDS011;49297;43.210;27.914;2023-05-27T06:01:19;6.03;;;5.37;;
63203;SDS011;49297;43.210;27.914;2023-05-27T06:03:45;7.20;;;5.80;;
63203;SDS011;49297;43.210;27.914;2023-05-27T06:06:11;7.00;;;6.30;;
63203;SDS011;49297;43.210;27.914;2023-05-27T06:08:37;7.63;;;5.22;;
63203;SDS011;49297;43.210;27.914;2023-05-27T06:11:03;7.38;;;5.43;;
63203;SDS011;49297;43.210;27.914;2023-05-27T06:13:28;5.53;;;4.90;;
63203;SDS011;49297;43.210;27.914;2023-05-27T06:15:54;7.13;;;6.00;;
63203;SDS011;49297;43.210;27.914;2023-05-27T06:18:23;6.65;;;5.85;;
63203;SDS011;49297;43.210;27.914;2023-05-27T06:20:48;8.30;;;5.97;;
63203;SDS011;49297;43.210;27.914;2023-05-27T06:23:14;6.53;;;5.93;;
63203;SDS011;49297;43.210;27.914;2023-05-27T06:25:42;7.60;;;5.53;;
63203;SDS011;49297;43.210;27.914;2023-05-27T06:28:08;6.50;;;5.90;;
63203;SDS011;49297;43.210;27.914;2023-05-27T06:30:33;6.53;;;5.43;;
63203;SDS011;49297;43.210;27.914;2023-05-27T06:33:01;6.88;;;5.53;;
63203;SDS011;49297;43.210;27.914;2023-05-27T06:35:27;7.10;;;5.37;;
63203;SDS011;49297;43.210;27.914;2023-05-27T06:37:52;7.75;;;5.78;;
63203;SDS011;49297;43.210;27.914;2023-05-27T06:40:18;7.13;;;6.37;;
63203;SDS011;49297;43.210;27.914;2023-05-27T06:42:44;7.07;;;6.38;;
63203;SDS011;49297;43.210;27.914;2023-05-27T06:45:10;11.00;;;7.68;;
63203;SDS011;49297;43.210;27.914;2023-05-27T06:47:36;7.25;;;6.30;;
63203;SDS011;49297;43.210;27.914;2023-05-27T06:50:03;7.20;;;6.55;;
63203;SDS011;49297;43.210;27.914;2023-05-27T06:52:34;7.35;;;6.60;;
63203;SDS011;49297;43.210;27.914;2023-05-27T06:55:00;8.40;;;6.35;;
63203;SDS011;49297;43.210;27.914;2023-05-27T06:57:26;6.43;;;5.82;;
63203;SDS011;49297;43.210;27.914;2023-05-27T06:59:51;8.38;;;6.10;;
63203;SDS011;49297;43.210;27.914;2023-05-27T07:02:17;7.45;;;5.90;;
63203;SDS011;49297;43.210;27.914;2023-05-27T07:04:43;6.65;;;5.95;;
63203;SDS011;49297;43.210;27.914;2023-05-27T07:07:09;6.40;;;5.78;;
63203;SDS011;49297;43.210;27.914;2023-05-27T07:09:35;7.13;;;6.03;;
63203;SDS011;49297;43.210;27.914;2023-05-27T07:12:01;7.30;;;6.67;;
63203;SDS011;49297;43.210;27.914;2023-05-27T07:14:27;9.50;;;7.18;;
63203;SDS011;49297;43.210;27.914;2023-05-27T07:16:53;6.93;;;6.22;;
63203;SDS011;49297;43.210;27.914;2023-05-27T07:19:18;8.10;;;7.10;;
63203;SDS011;49297;43.210;27.914;2023-05-27T07:21:44;9.60;;;6.97;;
63203;SDS011;49297;43.210;27.914;2023-05-27T07:24:10;8.73;;;6.27;;
63203;SDS011;49297;43.210;27.914;2023-05-27T07:26:36;6.57;;;5.97;;
63203;SDS011;49297;43.210;27.914;2023-05-27T07:29:02;7.05;;;6.35;;
63203;SDS011;49297;43.210;27.914;2023-05-27T07:31:28;10.23;;;6.25;;
63203;SDS011;49297;43.210;27.914;2023-05-27T07:33:54;8.57;;;6.90;;
63203;SDS011;49297;43.210;27.914;2023-05-27T07:36:20;7.20;;;6.20;;
63203;SDS011;49297;43.210;27.914;2023-05-27T07:38:46;7.60;;;7.00;;
63203;SDS011;49297;43.210;27.914;2023-05-27T07:41:12;7.35;;;6.65;;
63203;SDS011;49297;43.210;27.914;2023-05-27T07:43:38;7.45;;;6.82;;
63203;SDS011;49297;43.210;27.914;2023-05-27T07:46:04;9.25;;;7.10;;
63203;SDS011;49297;43.210;27.914;2023-05-27T07:48:30;10.27;;;7.07;;
63203;SDS011;49297;43.210;27.914;2023-05-27T07:50:56;7.40;;;6.70;;
63203;SDS011;49297;43.210;27.914;2023-05-27T07:53:22;12.38;;;7.65;;
63203;SDS011;49297;43.210;27.914;2023-05-27T07:55:48;6.55;;;5.95;;
63203;SDS011;49297;43.210;27.914;2023-05-27T07:58:14;7.22;;;5.75;;
63203;SDS011;49297;43.210;27.914;2023-05-27T08:00:39;8.40;;;6.70;;
63203;SDS011;49297;43.210;27.914;2023-05-27T08:03:05;8.55;;;6.97;;
63203;SDS011;49297;43.210;27.914;2023-05-27T08:05:31;9.13;;;7.25;;
63203;SDS011;49297;43.210;27.914;2023-05-27T08:07:57;7.10;;;6.50;;
63203;SDS011;49297;43.210;27.914;2023-05-27T08:10:23;7.30;;;6.43;;
63203;SDS011;49297;43.210;27.914;2023-05-27T08:12:50;7.72;;;6.93;;
63203;SDS011;49297;43.210;27.914;2023-05-27T08:15:15;7.90;;;6.40;;
63203;SDS011;49297;43.210;27.914;2023-05-27T08:17:41;6.82;;;5.93;;
63203;SDS011;49297;43.210;27.914;2023-05-27T08:20:11;7.88;;;5.93;;
63203;SDS011;49297;43.210;27.914;2023-05-27T08:22:37;7.32;;;5.72;;
63203;SDS011;49297;43.210;27.914;2023-05-27T08:25:03;7.57;;;5.80;;
63203;SDS011;49297;43.210;27.914;2023-05-27T08:27:43;6.90;;;5.20;;
63203;SDS011;49297;43.210;27.914;2023-05-27T08:30:11;9.82;;;6.03;;
63203;SDS011;49297;43.210;27.914;2023-05-27T08:32:37;6.10;;;5.33;;
63203;SDS011;49297;43.210;27.914;2023-05-27T08:35:03;6.00;;;5.40;;
63203;SDS011;49297;43.210;27.914;2023-05-27T08:37:30;6.25;;;5.43;;
63203;SDS011;49297;43.210;27.914;2023-05-27T08:39:55;6.27;;;5.37;;
63203;SDS011;49297;43.210;27.914;2023-05-27T08:42:23;6.40;;;5.75;;
63203;SDS011;49297;43.210;27.914;2023-05-27T08:44:50;7.80;;;5.55;;
63203;SDS011;49297;43.210;27.914;2023-05-27T08:47:16;7.80;;;5.83;;
63203;SDS011;49297;43.210;27.914;2023-05-27T08:49:42;6.93;;;6.30;;
63203;SDS011;49297;43.210;27.914;2023-05-27T08:52:09;6.40;;;5.80;;
63203;SDS011;49297;43.210;27.914;2023-05-27T08:54:36;7.47;;;6.82;;
63203;SDS011;49297;43.210;27.914;2023-05-27T08:57:03;6.80;;;6.07;;
63203;SDS011;49297;43.210;27.914;2023-05-27T08:59:33;6.60;;;6.10;;
63203;SDS011;49297;43.210;27.914;2023-05-27T09:02:00;7.63;;;6.93;;
63203;SDS011;49297;43.210;27.914;2023-05-27T09:04:27;8.85;;;7.32;;
63203;SDS011;49297;43.210;27.914;2023-05-27T09:06:53;7.80;;;7.10;;
63203;SDS011;49297;43.210;27.914;2023-05-27T09:09:19;7.53;;;6.78;;
63203;SDS011;49297;43.210;27.914;2023-05-27T09:11:45;7.80;;;6.70;;
63203;SDS011;49297;43.210;27.914;2023-05-27T09:14:19;7.10;;;6.43;;
63203;SDS011;49297;43.210;27.914;2023-05-27T09:16:47;8.38;;;7.50;;
63203;SDS011;49297;43.210;27.914;2023-05-27T09:19:16;8.35;;;6.35;;
63203;SDS011;49297;43.210;27.914;2023-05-27T09:21:43;8.65;;;6.32;;
63203;SDS011;49297;43.210;27.914;2023-05-27T09:24:26;7.22;;;6.53;;
63203;SDS011;49297;43.210;27.914;2023-05-27T09:26:53;8.02;;;7.25;;
63203;SDS011;49297;43.210;27.914;2023-05-27T09:29:27;7.93;;;7.13;;
63203;SDS011;49297;43.210;27.914;2023-05-27T09:31:56;9.13;;;7.65;;
63203;SDS011;49297;43.210;27.914;2023-05-27T09:34:21;11.25;;;7.80;;
63203;SDS011;49297;43.210;27.914;2023-05-27T09:36:49;9.15;;;7.35;;
63203;SDS011;49297;43.210;27.914;2023-05-27T09:39:19;13.63;;;7.78;;
63203;SDS011;49297;43.210;27.914;2023-05-27T09:41:54;12.83;;;8.13;;
63203;SDS011;49297;43.210;27.914;2023-05-27T09:44:22;10.25;;;6.15;;
63203;SDS011;49297;43.210;27.914;2023-05-27T09:46:52;8.95;;;7.00;;
63203;SDS011;49297;43.210;27.914;2023-05-27T09:49:19;8.07;;;6.85;;
63203;SDS011;49297;43.210;27.914;2023-05-27T09:51:48;10.45;;;7.07;;
63203;SDS011;49297;43.210;27.914;2023-05-27T09:54:17;8.65;;;7.38;;
63203;SDS011;49297;43.210;27.914;2023-05-27T09:56:47;16.98;;;10.73;;
63203;SDS011;49297;43.210;27.914;2023-05-27T09:59:14;14.10;;;11.63;;
63203;SDS011;49297;43.210;27.914;2023-05-27T10:01:40;14.87;;;9.63;;
63203;SDS011;49297;43.210;27.914;2023-05-27T10:04:10;22.92;;;13.30;;
63203;SDS011;49297;43.210;27.914;2023-05-27T10:06:36;19.52;;;15.65;;
63203;SDS011;49297;43.210;27.914;2023-05-27T10:09:04;15.38;;;12.70;;
63203;SDS011;49297;43.210;27.914;2023-05-27T10:11:31;16.02;;;12.00;;
63203;SDS011;49297;43.210;27.914;2023-05-27T10:13:58;12.13;;;10.73;;
63203;SDS011;49297;43.210;27.914;2023-05-27T10:16:26;11.48;;;10.38;;
63203;SDS011;49297;43.210;27.914;2023-05-27T10:18:53;12.77;;;11.50;;
63203;SDS011;49297;43.210;27.914;2023-05-27T10:21:19;15.48;;;12.10;;
63203;SDS011;49297;43.210;27.914;2023-05-27T10:23:55;11.60;;;10.50;;
63203;SDS011;49297;43.210;27.914;2023-05-27T10:29:09;11.02;;;10.02;;
63203;SDS011;49297;43.210;27.914;2023-05-27T10:31:36;11.98;;;10.88;;
63203;SDS011;49297;43.210;27.914;2023-05-27T10:34:11;13.23;;;11.77;;
63203;SDS011;49297;43.210;27.914;2023-05-27T10:36:36;20.93;;;14.40;;
63203;SDS011;49297;43.210;27.914;2023-05-27T10:39:03;13.38;;;12.27;;
63203;SDS011;49297;43.210;27.914;2023-05-27T10:41:40;17.80;;;12.32;;
63203;SDS011;49297;43.210;27.914;2023-05-27T10:44:07;12.65;;;11.40;;
63203;SDS011;49297;43.210;27.914;2023-05-27T10:46:40;14.00;;;12.15;;
63203;SDS011;49297;43.210;27.914;2023-05-27T10:49:14;12.32;;;11.32;;
63203;SDS011;49297;43.210;27.914;2023-05-27T10:51:47;14.30;;;12.07;;
63203;SDS011;49297;43.210;27.914;2023-05-27T10:54:14;13.10;;;11.83;;
63203;SDS011;49297;43.210;27.914;2023-05-27T10:56:50;12.65;;;11.45;;
63203;SDS011;49297;43.210;27.914;2023-05-27T10:59:20;14.68;;;13.10;;
63203;SDS011;49297;43.210;27.914;2023-05-27T11:01:50;14.18;;;12.98;;
63203;SDS011;49297;43.210;27.914;2023-05-27T11:04:18;14.00;;;12.80;;
63203;SDS011;49297;43.210;27.914;2023-05-27T11:07:18;14.85;;;13.48;;
63203;SDS011;49297;43.210;27.914;2023-05-27T11:09:44;14.75;;;13.55;;
63203;SDS011;49297;43.210;27.914;2023-05-27T11:12:15;15.93;;;14.43;;
63203;SDS011;49297;43.210;27.914;2023-05-27T11:14:45;16.42;;;14.82;;
63203;SDS011;49297;43.210;27.914;2023-05-27T11:17:13;14.73;;;13.50;;
63203;SDS011;49297;43.210;27.914;2023-05-27T11:19:41;15.95;;;12.70;;
63203;SDS011;49297;43.210;27.914;2023-05-27T11:22:08;16.48;;;12.63;;
63203;SDS011;49297;43.210;27.914;2023-05-27T11:24:35;13.30;;;11.90;;
63203;SDS011;49297;43.210;27.914;2023-05-27T11:27:12;15.32;;;11.13;;
63203;SDS011;49297;43.210;27.914;2023-05-27T11:29:39;11.43;;;10.27;;
63203;SDS011;49297;43.210;27.914;2023-05-27T11:32:15;13.00;;;11.23;;
63203;SDS011;49297;43.210;27.914;2023-05-27T11:34:43;11.27;;;10.23;;
63203;SDS011;49297;43.210;27.914;2023-05-27T11:37:09;10.07;;;8.88;;
63203;SDS011;49297;43.210;27.914;2023-05-27T11:39:35;10.90;;;9.80;;
63203;SDS011;49297;43.210;27.914;2023-05-27T11:42:04;10.37;;;9.37;;
63203;SDS011;49297;43.210;27.914;2023-05-27T11:44:32;9.23;;;7.93;;
63203;SDS011;49297;43.210;27.914;2023-05-27T11:46:58;9.00;;;8.10;;
63203;SDS011;49297;43.210;27.914;2023-05-27T11:49:27;10.10;;;8.57;;
63203;SDS011;49297;43.210;27.914;2023-05-27T11:51:57;10.67;;;9.67;;
63203;SDS011;49297;43.210;27.914;2023-05-27T11:56:53;12.43;;;9.95;;
63203;SDS011;49297;43.210;27.914;2023-05-27T11:59:21;10.57;;;9.60;;
63203;SDS011;49297;43.210;27.914;2023-05-27T12:01:49;10.45;;;9.52;;
63203;SDS011;49297;43.210;27.914;2023-05-27T12:04:16;10.68;;;9.68;;
63203;SDS011;49297;43.210;27.914;2023-05-27T12:06:42;10.93;;;9.93;;
63203;SDS011;49297;43.210;27.914;2023-05-27T12:09:09;14.10;;;10.90;;
63203;SDS011;49297;43.210;27.914;2023-05-27T12:11:36;12.73;;;11.63;;
63203;SDS011;49297;43.210;27.914;2023-05-27T12:14:03;11.60;;;10.60;;
63203;SDS011;49297;43.210;27.914;2023-05-27T12:16:29;12.02;;;10.82;;
63203;SDS011;49297;43.210;27.914;2023-05-27T12:18:55;12.27;;;11.07;;
63203;SDS011;49297;43.210;27.914;2023-05-27T12:21:21;11.77;;;10.65;;
63203;SDS011;49297;43.210;27.914;2023-05-27T12:23:47;11.27;;;10.27;;
63203;SDS011;49297;43.210;27.914;2023-05-27T12:26:15;10.70;;;9.63;;
63203;SDS011;49297;43.210;27.914;2023-05-27T12:28:41;9.70;;;8.90;;
63203;SDS011;49297;43.210;27.914;2023-05-27T12:31:08;9.93;;;9.13;;
63203;SDS011;49297;43.210;27.914;2023-05-27T12:33:34;11.90;;;9.52;;
63203;SDS011;49297;43.210;27.914;2023-05-27T12:36:00;10.77;;;9.83;;
63203;SDS011;49297;43.210;27.914;2023-05-27T12:38:26;11.30;;;10.35;;
63203;SDS011;49297;43.210;27.914;2023-05-27T12:40:52;10.02;;;8.93;;
63203;SDS011;49297;43.210;27.914;2023-05-27T12:43:20;8.98;;;8.10;;
63203;SDS011;49297;43.210;27.914;2023-05-27T12:45:46;8.98;;;8.27;;
63203;SDS011;49297;43.210;27.914;2023-05-27T12:48:12;8.95;;;8.05;;
63203;SDS011;49297;43.210;27.914;2023-05-27T12:50:39;9.95;;;7.85;;
63203;SDS011;49297;43.210;27.914;2023-05-27T12:53:07;8.52;;;7.72;;
63203;SDS011;49297;43.210;27.914;2023-05-27T12:55:33;8.97;;;7.70;;
63203;SDS011;49297;43.210;27.914;2023-05-27T12:58:00;8.43;;;7.65;;
63203;SDS011;49297;43.210;27.914;2023-05-27T13:00:26;8.07;;;7.45;;
63203;SDS011;49297;43.210;27.914;2023-05-27T13:02:53;8.82;;;8.15;;
63203;SDS011;49297;43.210;27.914;2023-05-27T13:05:19;8.52;;;7.63;;
63203;SDS011;49297;43.210;27.914;2023-05-27T13:07:55;9.25;;;7.75;;
63203;SDS011;49297;43.210;27.914;2023-05-27T13:10:23;10.02;;;7.90;;
63203;SDS011;49297;43.210;27.914;2023-05-27T13:12:49;8.45;;;7.68;;
63203;SDS011;49297;43.210;27.914;2023-05-27T13:15:15;9.70;;;8.73;;
63203;SDS011;49297;43.210;27.914;2023-05-27T13:17:44;8.70;;;7.90;;
63203;SDS011;49297;43.210;27.914;2023-05-27T13:20:11;9.00;;;8.02;;
63203;SDS011;49297;43.210;27.914;2023-05-27T13:22:38;9.23;;;8.43;;
63203;SDS011;49297;43.210;27.914;2023-05-27T13:25:05;10.15;;;9.13;;
63203;SDS011;49297;43.210;27.914;2023-05-27T13:27:32;10.65;;;8.85;;
63203;SDS011;49297;43.210;27.914;2023-05-27T13:29:58;7.75;;;6.95;;
63203;SDS011;49297;43.210;27.914;2023-05-27T13:32:24;8.57;;;7.70;;
63203;SDS011;49297;43.210;27.914;2023-05-27T13:34:49;8.90;;;8.20;;
63203;SDS011;49297;43.210;27.914;2023-05-27T13:37:17;9.02;;;7.05;;
63203;SDS011;49297;43.210;27.914;2023-05-27T13:39:43;8.97;;;6.67;;
63203;SDS011;49297;43.210;27.914;2023-05-27T13:42:09;7.93;;;7.25;;
63203;SDS011;49297;43.210;27.914;2023-05-27T13:44:35;10.68;;;9.32;;
63203;SDS011;49297;43.210;27.914;2023-05-27T13:47:01;9.77;;;8.77;;
63203;SDS011;49297;43.210;27.914;2023-05-27T13:49:27;13.10;;;9.90;;
63203;SDS011;49297;43.210;27.914;2023-05-27T13:51:53;8.07;;;7.43;;
63203;SDS011;49297;43.210;27.914;2023-05-27T13:54:18;10.73;;;8.13;;
63203;SDS011;49297;43.210;27.914;2023-05-27T13:56:44;11.07;;;8.50;;
63203;SDS011;49297;43.210;27.914;2023-05-27T13:59:10;10.45;;;8.45;;
63203;SDS011;49297;43.210;27.914;2023-05-27T14:01:37;10.93;;;9.25;;
63203;SDS011;49297;43.210;27.914;2023-05-27T14:04:04;9.95;;;8.45;;
63203;SDS011;49297;43.210;27.914;2023-05-27T14:06:30;9.75;;;8.82;;
63203;SDS011;49297;43.210;27.914;2023-05-27T14:08:56;11.75;;;9.13;;
63203;SDS011;49297;43.210;27.914;2023-05-27T14:11:22;11.65;;;9.77;;
63203;SDS011;49297;43.210;27.914;2023-05-27T14:13:48;6.50;;;5.80;;
63203;SDS011;49297;43.210;27.914;2023-05-27T14:16:15;9.07;;;8.07;;
63203;SDS011;49297;43.210;27.914;2023-05-27T14:18:41;12.10;;;11.00;;
63203;SDS011;49297;43.210;27.914;2023-05-27T14:21:08;15.93;;;12.50;;
63203;SDS011;49297;43.210;27.914;2023-05-27T14:23:34;20.10;;;13.07;;
63203;SDS011;49297;43.210;27.914;2023-05-27T14:26:00;12.30;;;9.95;;
63203;SDS011;49297;43.210;27.914;2023-05-27T14:28:26;10.50;;;8.73;;
63203;SDS011;49297;43.210;27.914;2023-05-27T14:30:51;10.35;;;9.45;;
63203;SDS011;49297;43.210;27.914;2023-05-27T14:33:18;14.57;;;9.50;;
63203;SDS011;49297;43.210;27.914;2023-05-27T14:35:44;13.18;;;9.95;;